• Join FlightAware (Why Join?)
  • Login
  • US Flag 
04:00PM EDT


 

Airport Tracker/Info


-or-


 

Live Flight TrackerFlight Track Log ✈ XOJ552 ✈ 12-May-2013 ✈ KAPF - KHPN

Flight Track Log - Related Links

Times and Time Zones

All times are in EDT time to prevent confusion due to time zone crossing. See the XOJ552 flight status page for this flight to view local times or setup timezone preferences in your user account.

Time Position Orientation Groundspeed Altitude Reporting Facility
EDT Latitude Longitude Course Direction KTS MPH feet Rate Location/Type
04:36PM 26.1822 -81.8753 343° North 204 235 7,600  Level Miami Center
04:37PM 26.2600 -81.8625 North 203 234 11,700 3,780 Climbing Miami Center
04:38PM 26.3439 -81.8475 North 258 297 15,200 3,000 Climbing Miami Center
04:39PM 26.4383 -81.8328 North 299 344 17,800 1,980 Climbing Miami Center
04:40PM 26.5486 -81.8444 355° North 340 391 19,200 2,340 Climbing Miami Center
04:41PM 26.9280 -81.7333 North  Level FlightAware Approximate
04:41PM 26.6539 -81.8792 344° North 373 429 22,500  Level Miami Center
04:42PM 27.0571 -81.7412 343° North  Level FlightAware Approximate
04:42PM 26.7597 -81.9000 350° North 373 429 24,700  Level Miami Center
04:43PM 26.8736 -81.8678 14° North 379 436 27,100 2,220 Climbing Miami Center
04:44PM 26.9897 -81.8283 17° North 405 466 29,200 1,860 Climbing Miami Center
04:45PM 27.1058 -81.7892 17° North 427 491 30,900 1,740 Climbing Miami Center
04:46PM 27.2283 -81.7500 16° North 443 510 32,700 1,560 Climbing Miami Center
04:47PM 27.3417 -81.7244 11° North 448 516 34,100 1,380 Climbing Miami Center
04:48PM 27.4861 -81.7117 North 467 537 35,500 1,500 Climbing Miami Center
04:49PM 27.6181 -81.7033 North 467 537 37,100 1,500 Climbing Miami Center
04:50PM 27.7478 -81.6947 North 462 532 38,600 1,380 Climbing Miami Center
04:51PM 27.8628 -81.6856 North 462 532 39,900 1,260 Climbing Miami Center
04:52PM 27.9903 -81.6792 North 462 532 41,200 1,080 Climbing Miami Center
04:53PM 28.1158 -81.6703 North 457 526 42,100 840 Climbing Miami Center
04:54PM 28.2411 -81.6617 North 457 526 42,900 780 Climbing Miami Center
04:55PM 28.3644 -81.6528 North 452 520 43,700 660 Climbing Miami Center
04:56PM 28.4983 -81.6419 North 445 512 44,300 420 Climbing Miami Center
04:57PM 28.6008 -81.6369 North 444 511 44,600 300 Climbing Jacksonville Center
04:58PM 28.7258 -81.6283 North 497 572 44,900 180 Climbing Jacksonville Center
04:59PM 28.8511 -81.6197 North 466 536 45,000  Climbing Jacksonville Center
05:00PM 28.9783 -81.6108 North 451 519 45,000  Level Jacksonville Center
05:01PM 29.1056 -81.5997 North 451 519 45,000  Level Jacksonville Center
05:02PM 29.2306 -81.5908 North 457 526 45,000  Level Jacksonville Center
05:03PM 29.3622 -81.5819 North 457 526 45,000  Level Jacksonville Center
05:04PM 29.4894 -81.5731 North 457 526 45,000  Level Jacksonville Center
05:05PM 29.6208 -81.5642 North 463 533 45,000  Level Jacksonville Center
05:06PM 29.7481 -81.5531 North 463 533 45,000  Level Jacksonville Center
05:07PM 29.8794 -81.5417 North 463 533 45,000  Level Jacksonville Center
05:08PM 30.0108 -81.5325 North 463 533 45,000  Level Jacksonville Center
05:09PM 30.1422 -81.5258 North 463 533 45,000  Level Jacksonville Center
05:10PM 30.2758 -81.5144 North 468 539 45,000  Level Jacksonville Center
05:11PM 30.4217 -81.4808 11° North 478 550 45,000  Level Jacksonville Center
05:12PM 30.5525 -81.4356 17° North 483 556 45,000  Level Jacksonville Center
05:13PM 30.6878 -81.3925 15° North 490 564 45,000  Level Jacksonville Center
05:14PM 30.8167 -81.3492 16° North 485 558 45,000  Level Jacksonville Center
05:15PM 30.9478 -81.3061 16° North 485 558 45,000  Level Jacksonville Center
05:16PM 31.0767 -81.2625 16° North 480 552 45,000  Level Jacksonville Center
05:17PM 31.2056 -81.2167 17° North 470 541 45,000  Level Jacksonville Center
05:18PM 31.3342 -81.1681 18° North 476 548 45,000  Level Jacksonville Center
05:19PM 31.4522 -81.0856 31° Northeast 483 556 45,000  Level Jacksonville Center
05:20PM 31.5719 -81.0028 30° Northeast 497 572 45,000  Level Jacksonville Center
05:21PM 31.6772 -80.9250 32° Northeast 503 579 45,000  Level Jacksonville Center
05:22PM 31.8072 -80.8292 32° Northeast 498 573 45,000  Level Jacksonville Center
05:23PM 31.9167 -80.7533 30° Northeast 498 573 45,000  Level Jacksonville Center
05:24PM 32.0467 -80.6597 31° Northeast 498 573 45,000  Level Jacksonville Center
05:25PM 32.1683 -80.5733 31° Northeast 503 579 45,000  Level Jacksonville Center
05:26PM 32.2878 -80.4867 32° Northeast 508 585 45,000  Level Jacksonville Center
05:27PM 32.4072 -80.4000 31° Northeast 506 582 45,000  Level Jacksonville Center
05:28PM 32.5264 -80.3103 32° Northeast 506 582 45,000  Level Jacksonville Center
05:29PM 32.6497 -80.2206 31° Northeast 506 582 45,000  Level Jacksonville Center
05:30PM 32.7708 -80.1281 33° Northeast 506 582 45,000  Level Jacksonville Center
05:31PM 32.8919 -80.0328 33° Northeast 511 588 45,000  Level Jacksonville Center
05:32PM 33.0083 -79.9225 38° Northeast 524 603 45,000  Level Jacksonville Center
05:33PM 33.1269 -79.8144 37° Northeast 529 609 45,000  Level Jacksonville Center
05:34PM 33.2408 -79.7014 40° Northeast 534 615 45,000  Level Jacksonville Center
05:35PM 33.3550 -79.5928 38° Northeast 534 615 45,000  Level Jacksonville Center
05:36PM 33.4708 -79.4789 39° Northeast 534 615 45,000  Level Jacksonville Center
05:37PM 33.5847 -79.3647 40° Northeast 534 615 45,000  Level Jacksonville Center
05:38PM 33.7006 -79.2528 39° Northeast 534 615 45,000  Level Jacksonville Center
05:39PM 33.8100 -79.1458 39° Northeast 526 605 45,000  Level Jacksonville Center
05:40PM 33.9275 -79.0308 39° Northeast 526 605 45,000  Level Jacksonville Center
05:43PM 34.2008 -78.7608 39° Northeast 508 585 45,000  Level Washington Center
05:44PM 34.3144 -78.6469 40° Northeast 522 601 45,000 -60 Level Washington Center
05:45PM 34.4278 -78.5328 40° Northeast 513 590 44,900  Descending Washington Center
05:46PM 34.5197 -78.4403 40° Northeast 526 605 45,000  Climbing Washington Center
05:47PM 34.6436 -78.3158 40° Northeast 526 605 45,000  Level Washington Center
05:48PM 34.7547 -78.2008 40° Northeast 526 605 45,000  Level Washington Center
05:49PM 34.8636 -78.0803 42° Northeast 531 611 45,000  Level Washington Center
05:50PM 34.9744 -77.9669 40° Northeast 526 605 45,000  Level Washington Center
05:51PM 35.0894 -77.8486 40° Northeast 521 600 45,000  Level Washington Center
05:52PM 35.2000 -77.7347 40° Northeast 521 600 45,000  Level Washington Center
05:53PM 35.3147 -77.6156 40° Northeast 521 600 45,000  Level Washington Center
05:54PM 35.4292 -77.5064 38° Northeast 521 600 45,000  Level Washington Center
05:55PM 35.5497 -77.4047 34° Northeast 521 600 45,000  Level Washington Center
05:56PM 35.6681 -77.3000 36° Northeast 521 600 45,000  Level Washington Center
05:57PM 35.7864 -77.1922 36° Northeast 521 600 45,000  Level Washington Center
05:58PM 35.9047 -77.0897 35° Northeast 520 598 45,000  Level Washington Center
05:59PM 36.0206 -76.9839 36° Northeast 520 598 45,000  Level Washington Center
06:00PM 36.1408 -76.8831 34° Northeast 520 598 45,000  Level Washington Center
06:01PM 36.2669 -76.7925 30° Northeast 520 598 45,000  Level Washington Center
06:02PM 36.3908 -76.7042 30° Northeast 520 598 45,000  Level Washington Center
06:03PM 36.5169 -76.6128 30° Northeast 515 593 45,000  Level Washington Center
06:04PM 36.6406 -76.5239 30° Northeast 515 593 45,000  Level Washington Center
06:05PM 36.7769 -76.4217 31° Northeast 509 586 45,000  Level Washington Center
06:06PM 36.9028 -76.3294 30° Northeast 514 592 45,000  Level Washington Center
06:07PM 37.0264 -76.2344 32° Northeast 519 597 45,000  Level Washington Center
06:08PM 37.1247 -76.1650 29° Northeast 519 597 45,000  Level Washington Center
06:09PM 37.2836 -76.0644 27° Northeast 519 597 45,000  Level Washington Center
06:10PM 37.4114 -75.9789 28° Northeast 519 597 45,000  Level Washington Center
06:11PM 37.5389 -75.8903 29° Northeast 519 597 45,000  Level Washington Center
06:12PM 37.6661 -75.8042 28° Northeast 519 597 45,000  Level Washington Center
06:13PM 37.7956 -75.7153 28° Northeast 525 604 45,000  Level Washington Center
06:14PM 37.9269 -75.6261 28° Northeast 525 604 45,000  Level Washington Center
06:15PM 38.0292 -75.5575 28° Northeast 525 604 45,000  Level Washington Center
06:16PM 38.1833 -75.4492 29° Northeast 525 604 45,000  Level Washington Center
06:17PM 38.2875 -75.3800 28° Northeast 525 604 45,000 -1,440 Level Washington Center
06:18PM 38.4417 -75.2656 30° Northeast 525 604 42,200 -2,820 Descending Washington Center
06:19PM 38.5747 -75.1719 29° Northeast 531 611 39,400 -2,580 Descending Washington Center
06:20PM 38.7017 -75.0808 29° Northeast 531 611 37,000 -1,260 Descending Washington Center
06:21PM 38.8283 -74.9922 29° Northeast 520 598 37,000  Level Washington Center
06:22PM 38.9592 -74.9028 28° Northeast 520 598 37,000 -480 Level Washington Center
06:23PM 39.0878 -74.8081 30° Northeast 526 605 36,100 -1,020 Descending Washington Center
06:24PM 39.2017 -74.6944 38° Northeast 526 605 35,000 -1,020 Descending Washington Center
06:25PM 39.3194 -74.5722 39° Northeast 526 605 34,100 -1,200 Descending Washington Center
06:27PM 39.5450 -74.3353 39° Northeast 557 641 31,500 -1,560 Descending New York Center
06:28PM 39.6633 -74.2092 39° Northeast 552 635 29,500 -2,040 Descending New York Center
06:29PM 39.7814 -74.0853 39° Northeast 552 635 27,500 -2,040 Descending New York Center
06:30PM 39.8953 -73.9636 39° Northeast 547 629 25,500 -1,800 Descending New York Center
06:31PM 40.0111 -73.8414 39° Northeast 536 617 23,900 -1,980 Descending New York Center
06:32PM 40.1892 -73.6489 40° Northeast 513 590 20,500 -2,160 Descending Boston Center
06:33PM 40.2944 -73.5364 39° Northeast 498 573 18,500 -1,800 Descending Boston Center
06:34PM 40.4017 -73.4483 32° Northeast 477 549 17,000 -780 Descending Boston Center
06:35PM 40.4956 -73.4144 15° North 444 511 17,000  Level Boston Center
06:36PM 40.6167 -73.3667 17° North 432 497 17,100 -360 Climbing New York TRACON
06:37PM 40.7167 -73.3333 14° North 412 474 16,400 -1,320 Descending New York TRACON
06:38PM 40.8000 -73.2667 31° Northeast 390 449 14,700 -1,620 Descending New York TRACON
06:39PM 40.8667 -73.1667 49° Northeast 389 448 13,200 -1,560 Descending New York TRACON
06:40PM 40.9167 -73.0667 56° Northeast 351 404 11,600 -1,800 Descending New York TRACON
06:41PM 40.9833 -73.0000 37° Northeast 308 354 9,500 -1,980 Descending New York TRACON
06:42PM 41.0167 -73.0667 304° West 264 304 7,700 -1,980 Descending New York TRACON
06:43PM 41.0667 -73.1667 304° West 254 292 5,600 -1,980 Descending New York TRACON
06:44PM 41.1000 -73.2333 304° West 242 278 3,600 -1,320 Descending New York TRACON
06:45PM 41.1000 -73.3167 270° West 233 268 3,100 -300 Descending New York TRACON
06:46PM 41.0667 -73.3833 236° Southwest 235 270 3,100 -240 Level New York TRACON
06:47PM 41.0333 -73.4667 242° Southwest 195 224 2,700 -480 Descending New York TRACON
06:48PM 41.0167 -73.5167 246° West 182 209 2,100 -300 Descending New York TRACON
06:49PM 41.0000 -73.5833 252° West 173 199 2,100 -120 Level New York TRACON
06:50PM 41.0000 -73.6500 270° West 166 191 1,900 -480 Descending New York TRACON
06:52PM 41.0500 -73.7000 323° Northwest 111 128 700 -600 Descending New York TRACON